createdAt,value
2022-11-28T00:01:41.408Z,101431.59
2022-11-28T00:04:44.183Z,101439.34
2022-11-28T00:07:46.791Z,101435.94
2022-11-28T00:10:49.270Z,101450.56
2022-11-28T00:13:51.578Z,101445.41
2022-11-28T00:16:54.190Z,101440.22
2022-11-28T00:19:56.605Z,101444.50
2022-11-28T00:22:59.070Z,101445.31
2022-11-28T00:26:02.722Z,101443.66
2022-11-28T00:29:06.073Z,101441.13
2022-11-28T00:32:08.399Z,101440.28
2022-11-28T00:35:10.952Z,101436.81
2022-11-28T00:38:13.251Z,101443.69
2022-11-28T00:41:17.086Z,101444.59
2022-11-28T00:44:19.285Z,101446.34
2022-11-28T00:47:22.281Z,101450.59
2022-11-28T00:50:27.766Z,101442.03
2022-11-28T00:53:30.562Z,101445.47
2022-11-28T00:56:37.233Z,101445.41
2022-11-28T00:59:39.725Z,101450.59
2022-11-28T01:02:41.965Z,101454.91
2022-11-28T01:05:44.710Z,101455.75
2022-11-28T01:08:47.270Z,101451.41
2022-11-28T01:11:51.119Z,101453.16
2022-11-28T01:14:53.745Z,101448.00
2022-11-28T01:17:56.241Z,101444.56
2022-11-28T01:20:58.864Z,101442.00
2022-11-28T01:24:01.468Z,101440.25
2022-11-28T01:27:03.791Z,101432.56
2022-11-28T01:30:06.669Z,101436.00
2022-11-28T01:33:08.956Z,101441.09
2022-11-28T01:36:12.520Z,101438.50
2022-11-28T01:39:15.763Z,101442.81
2022-11-28T01:42:19.492Z,101434.19
2022-11-28T01:45:26.327Z,101432.50
2022-11-28T01:48:34.225Z,101414.50
2022-11-28T01:51:37.474Z,101418.81
2022-11-28T01:54:42.003Z,101408.47
2022-11-28T01:57:44.407Z,101404.16
2022-11-28T02:00:48.641Z,101399.03
2022-11-28T02:03:52.603Z,101399.00
2022-11-28T02:06:55.488Z,101397.25
2022-11-28T02:09:57.759Z,101394.62
2022-11-28T02:13:10.990Z,101395.50
2022-11-28T02:16:28.503Z,101390.34
2022-11-28T02:20:00.312Z,101393.81
2022-11-28T02:23:02.551Z,101385.25
2022-11-28T02:26:23.980Z,101394.62
2022-11-28T02:29:29.321Z,101377.47
2022-11-28T02:32:44.072Z,101379.13
2022-11-28T02:35:55.877Z,101378.31
2022-11-28T02:38:58.333Z,101368.03
2022-11-28T02:42:06.917Z,101372.28
2022-11-28T02:45:18.344Z,101375.69
2022-11-28T02:48:29.245Z,101369.72
2022-11-28T02:51:40.765Z,101367.97
2022-11-28T02:54:43.815Z,101359.34
2022-11-28T02:57:48.927Z,101361.09
2022-11-28T03:00:51.946Z,101356.81
2022-11-28T03:04:06.337Z,101356.78
2022-11-28T03:07:23.714Z,101357.69
2022-11-28T03:10:35.853Z,101357.66
2022-11-28T03:13:57.431Z,101355.94
2022-11-28T03:17:18.856Z,101358.53
2022-11-28T03:20:28.782Z,101357.69
2022-11-28T03:23:38.939Z,101354.22
2022-11-28T03:26:52.596Z,101350.81
2022-11-28T03:29:57.105Z,101349.09
2022-11-28T03:33:00.911Z,101340.50
2022-11-28T03:36:25.264Z,101337.09
2022-11-28T03:39:33.674Z,101332.75
2022-11-28T03:42:38.303Z,101325.91
2022-11-28T03:45:49.031Z,101321.63
2022-11-28T03:48:54.605Z,101313.91
2022-11-28T03:52:00.712Z,101312.19
2022-11-28T03:55:05.815Z,101295.81
2022-11-28T03:58:34.384Z,101290.69
2022-11-28T04:01:46.445Z,101289.81
2022-11-28T04:05:07.649Z,101287.28
2022-11-28T04:08:10.081Z,101287.22
2022-11-28T04:11:35.608Z,101283.75
2022-11-28T04:14:42.134Z,101283.72
2022-11-28T04:17:53.081Z,101281.16
2022-11-28T04:20:59.081Z,101287.13
2022-11-28T04:24:04.097Z,101282.81
2022-11-28T04:27:09.999Z,101281.91
2022-11-28T04:30:13.797Z,101281.06
2022-11-28T04:33:19.025Z,101277.59
2022-11-28T04:36:22.831Z,101275.88
2022-11-28T04:39:26.441Z,101268.16
2022-11-28T04:42:52.593Z,101269.84
2022-11-28T04:46:07.090Z,101275.88
2022-11-28T04:49:10.288Z,101276.75
2022-11-28T04:52:31.218Z,101278.41
2022-11-28T04:55:37.536Z,101270.69
2022-11-28T04:58:45.786Z,101272.41
2022-11-28T05:01:49.921Z,101272.38
2022-11-28T05:04:55.635Z,101266.38
2022-11-28T05:07:59.449Z,101274.94
2022-11-28T05:11:02.384Z,101271.47
2022-11-28T05:14:04.897Z,101269.75
2022-11-28T05:17:07.540Z,101274.03
2022-11-28T05:20:10.293Z,101277.44
2022-11-28T05:23:12.666Z,101274.91
2022-11-28T05:26:20.141Z,101280.91
2022-11-28T05:29:24.865Z,101282.59
2022-11-28T05:32:31.317Z,101275.72
2022-11-28T05:35:33.571Z,101286.06
2022-11-28T05:38:36.217Z,101285.22
2022-11-28T05:41:38.750Z,101286.16
2022-11-28T05:44:41.437Z,101295.53
2022-11-28T05:47:43.627Z,101293.84
2022-11-28T05:50:46.178Z,101292.06
2022-11-28T05:53:48.464Z,101299.78
2022-11-28T05:56:51.110Z,101308.34
2022-11-28T05:59:53.378Z,101311.84
2022-11-28T06:03:00.991Z,101306.69
2022-11-28T06:06:04.052Z,101305.00
2022-11-28T06:09:07.235Z,101308.41
2022-11-28T06:12:10.274Z,101313.59
2022-11-28T06:15:12.480Z,101296.44
2022-11-28T06:18:15.080Z,101305.03
2022-11-28T06:21:17.296Z,101305.03
2022-11-28T06:24:19.810Z,101306.78
2022-11-28T06:27:22.186Z,101307.63
2022-11-28T06:30:25.095Z,101305.06
2022-11-28T06:33:27.373Z,101302.50
2022-11-28T06:36:30.801Z,101311.91
2022-11-28T06:39:33.074Z,101299.91
2022-11-28T06:42:36.368Z,101305.94
2022-11-28T06:45:38.621Z,101318.81
2022-11-28T06:48:41.328Z,101306.84
2022-11-28T06:51:45.752Z,101318.81
2022-11-28T06:54:48.277Z,101329.13
2022-11-28T06:57:50.433Z,101330.78
2022-11-28T07:00:53.111Z,101331.72
2022-11-28T07:03:56.418Z,101334.28
2022-11-28T07:06:58.970Z,101327.44
2022-11-28T07:10:01.224Z,101325.72
2022-11-28T07:13:05.551Z,101330.06
2022-11-28T07:16:12.001Z,101331.81
2022-11-28T07:19:14.670Z,101322.34
2022-11-28T07:22:17.116Z,101324.13
2022-11-28T07:25:19.649Z,101325.00
2022-11-28T07:28:23.567Z,101317.25
2022-11-28T07:31:28.638Z,101323.34
2022-11-28T07:34:30.913Z,101320.81
2022-11-28T07:37:33.363Z,101318.22
2022-11-28T07:40:36.031Z,101324.28
2022-11-28T07:43:38.802Z,101328.66
2022-11-28T07:46:41.149Z,101308.03
2022-11-28T07:49:44.045Z,101309.78
2022-11-28T07:52:46.572Z,101306.31
2022-11-28T07:55:49.554Z,101302.00
2022-11-28T07:58:52.792Z,101302.84
2022-11-28T08:01:55.320Z,101300.19
2022-11-28T08:04:58.271Z,101300.25
2022-11-28T08:08:00.938Z,101299.44
2022-11-28T08:11:04.911Z,101301.22
2022-11-28T08:14:07.304Z,101294.41
2022-11-28T08:17:09.966Z,101288.38
2022-11-28T08:20:13.375Z,101296.12
2022-11-28T08:23:16.039Z,101292.62
2022-11-28T08:26:19.458Z,101287.44
2022-11-28T08:29:22.134Z,101293.50
2022-11-28T08:32:25.704Z,101302.13
2022-11-28T08:35:28.234Z,101302.13
2022-11-28T08:38:30.511Z,101306.44
2022-11-28T08:41:33.080Z,101313.34
2022-11-28T08:44:36.080Z,101321.03
2022-11-28T08:47:38.703Z,101319.28
2022-11-28T08:50:48.045Z,101320.19
2022-11-28T08:53:54.950Z,101320.06
2022-11-28T08:57:01.380Z,101321.75
2022-11-28T09:00:06.185Z,101320.06
2022-11-28T09:03:13.181Z,101315.81
2022-11-28T09:06:16.905Z,101319.22
2022-11-28T09:09:19.890Z,101314.09
2022-11-28T09:12:22.557Z,101308.94
2022-11-28T09:15:24.910Z,101302.13
2022-11-28T09:18:27.402Z,101300.31
2022-11-28T09:21:29.718Z,101298.63
2022-11-28T09:24:32.323Z,101296.06
2022-11-28T09:27:34.567Z,101290.87
2022-11-28T09:30:39.702Z,101287.41
2022-11-28T09:33:42.751Z,101293.53
2022-11-28T09:36:45.234Z,101291.81
2022-11-28T09:40:11.487Z,101287.50
2022-11-28T09:43:18.659Z,101283.22
2022-11-28T09:46:25.988Z,101287.53
2022-11-28T09:49:40.859Z,101277.19
2022-11-28T09:52:49.481Z,101271.16
2022-11-28T09:56:14.514Z,101270.31
2022-11-28T09:59:22.881Z,101269.47
2022-11-28T10:02:33.971Z,101262.53
2022-11-28T10:05:41.436Z,101258.19
2022-11-28T10:08:55.997Z,101267.66
2022-11-28T10:12:21.662Z,101258.97
2022-11-28T10:15:29.749Z,101255.53
2022-11-28T10:18:39.815Z,101244.38
2022-11-28T10:21:45.178Z,101243.53
2022-11-28T10:24:50.233Z,101247.88
2022-11-28T10:27:53.346Z,101242.72
2022-11-28T10:31:06.991Z,101240.19
2022-11-28T10:34:09.163Z,101234.19
2022-11-28T10:37:15.963Z,101232.47
2022-11-28T10:40:23.577Z,101227.31
2022-11-28T10:43:34.129Z,101227.31
2022-11-28T10:46:52.171Z,101225.59
2022-11-28T10:50:20.112Z,101217.81
2022-11-28T10:53:31.598Z,101219.53
2022-11-28T10:56:34.079Z,101212.66
2022-11-28T11:00:03.719Z,101208.38
2022-11-28T11:03:11.707Z,101209.25
2022-11-28T11:06:13.987Z,101203.19
2022-11-28T11:09:16.489Z,101198.94
2022-11-28T11:12:25.639Z,101199.78
2022-11-28T11:15:29.884Z,101196.34
2022-11-28T11:18:34.798Z,101197.19
2022-11-28T11:21:37.281Z,101203.22
2022-11-28T11:24:39.559Z,101192.00
2022-11-28T11:27:52.461Z,101199.78
2022-11-28T11:31:00.104Z,101202.38
2022-11-28T11:34:04.245Z,101194.59
2022-11-28T11:37:20.663Z,101202.34
2022-11-28T11:40:23.215Z,101186.91
2022-11-28T11:43:33.055Z,101189.47
2022-11-28T11:46:36.122Z,101186.88
2022-11-28T11:49:44.962Z,101198.94
2022-11-28T11:53:04.319Z,101191.19
2022-11-28T11:56:06.859Z,101189.47
2022-11-28T11:59:15.539Z,101189.47
2022-11-28T12:02:23.316Z,101191.19
2022-11-28T12:06:12.260Z,101187.75
2022-11-28T12:09:23.219Z,101183.44
2022-11-28T12:12:29.207Z,101180.84
2022-11-28T12:15:45.500Z,101174.00
2022-11-28T12:18:54.067Z,101174.81
2022-11-28T12:22:08.411Z,101169.69
2022-11-28T12:25:16.630Z,101163.66
2022-11-28T12:28:37.781Z,101170.53
2022-11-28T12:31:55.429Z,101164.53
2022-11-28T12:35:00.848Z,101158.50
2022-11-28T12:38:10.849Z,101158.53
2022-11-28T12:41:25.092Z,101157.66
2022-11-28T12:44:34.809Z,101149.91
2022-11-28T12:47:43.325Z,101151.66
2022-11-28T12:50:47.976Z,101153.34
2022-11-28T12:54:05.358Z,101149.03
2022-11-28T12:57:16.951Z,101157.66
2022-11-28T13:00:21.226Z,101145.63
2022-11-28T13:03:26.536Z,101143.03
2022-11-28T13:06:31.773Z,101143.03
2022-11-28T13:09:37.236Z,101141.31
2022-11-28T13:12:54.957Z,101131.87
2022-11-28T13:16:11.631Z,101130.12
2022-11-28T13:19:26.323Z,101135.31
2022-11-28T13:22:49.533Z,101136.13
2022-11-28T13:26:14.828Z,101134.44
2022-11-28T13:29:23.285Z,101132.72
2022-11-28T13:32:35.327Z,101129.28
2022-11-28T13:35:39.194Z,101127.56
2022-11-28T13:39:11.718Z,101127.56
2022-11-28T13:45:54.162Z,101124.13
2022-11-28T13:49:19.730Z,101124.97
2022-11-28T13:52:29.376Z,101126.69
2022-11-28T13:55:46.458Z,101130.12
2022-11-28T13:58:56.822Z,101129.25
2022-11-28T14:02:04.883Z,101128.41
2022-11-28T14:05:21.497Z,101130.94
2022-11-28T14:08:38.300Z,101132.69
2022-11-28T14:11:50.010Z,101118.09
2022-11-28T14:15:07.954Z,101117.22
2022-11-28T14:18:48.000Z,101110.31
2022-11-28T14:21:46.794Z,101112.91
2022-11-28T14:24:59.701Z,101117.16
2022-11-28T14:28:03.910Z,101111.97
2022-11-28T14:31:25.009Z,101109.34
2022-11-28T14:34:56.798Z,101106.75
2022-11-28T14:37:59.542Z,101110.16
2022-11-28T14:41:03.584Z,101107.56
2022-11-28T14:44:24.992Z,101104.09
2022-11-28T14:47:42.863Z,101099.81
2022-11-28T14:50:46.842Z,101099.81
2022-11-28T14:53:49.877Z,101099.75
2022-11-28T14:56:58.184Z,101105.72
2022-11-28T15:00:05.350Z,101103.91
2022-11-28T15:03:15.931Z,101102.97
2022-11-28T15:06:20.803Z,101097.75
2022-11-28T15:09:30.345Z,101096.06
2022-11-28T15:12:37.770Z,101103.72
2022-11-28T15:15:49.927Z,101102.81
2022-11-28T15:18:55.170Z,101100.97
2022-11-28T15:21:58.202Z,101106.91
2022-11-28T15:25:00.468Z,101118.81
2022-11-28T15:28:18.028Z,101118.78
2022-11-28T15:31:23.532Z,101114.44
2022-11-28T15:34:28.158Z,101117.78
2022-11-28T15:37:34.637Z,101114.34
2022-11-28T15:40:37.943Z,101121.16
2022-11-28T15:43:45.489Z,101123.59
2022-11-28T15:46:48.107Z,101118.50
2022-11-28T15:50:01.043Z,101121.84
2022-11-28T15:53:14.430Z,101126.84
2022-11-28T15:56:16.690Z,101127.56
2022-11-28T15:59:19.281Z,101139.44
2022-11-28T16:02:26.544Z,101131.75
2022-11-28T16:05:29.722Z,101130.06
2022-11-28T16:08:34.856Z,101132.59
2022-11-28T16:11:38.140Z,101139.25
2022-11-28T16:14:44.016Z,101132.31
2022-11-28T16:17:46.874Z,101131.41
2022-11-28T16:20:49.383Z,101139.22
2022-11-28T16:23:52.177Z,101139.16
2022-11-28T16:26:56.313Z,101140.12
2022-11-28T16:30:00.684Z,101148.69
2022-11-28T16:33:28.727Z,101141.13
2022-11-28T16:36:38.002Z,101134.44
2022-11-28T16:39:40.333Z,101138.03
2022-11-28T16:42:42.927Z,101132.16
2022-11-28T16:45:45.142Z,101135.59
2022-11-28T16:48:50.405Z,101137.25
2022-11-28T16:52:13.287Z,101132.78
2022-11-28T16:55:36.058Z,101146.28
2022-11-28T16:58:38.291Z,101147.84
2022-11-28T17:01:41.757Z,101143.41
2022-11-28T17:04:44.610Z,101141.75
2022-11-28T17:07:47.207Z,101141.72
2022-11-28T17:10:49.457Z,101140.62
2022-11-28T17:13:52.425Z,101140.44
2022-11-28T17:16:56.479Z,101136.84
2022-11-28T17:19:59.165Z,101134.94
2022-11-28T17:23:01.400Z,101138.44
2022-11-28T17:26:06.674Z,101140.06
2022-11-28T17:29:10.606Z,101143.47
2022-11-28T17:32:13.982Z,101139.19
2022-11-28T17:35:22.354Z,101145.84
2022-11-28T17:38:25.014Z,101151.66
2022-11-28T17:41:27.717Z,101148.28
2022-11-28T17:44:31.353Z,101145.78
2022-11-28T17:47:35.090Z,101144.03
2022-11-28T17:50:37.662Z,101145.72
2022-11-28T17:53:43.523Z,101149.75
2022-11-28T17:56:47.081Z,101149.56
2022-11-28T17:59:49.322Z,101141.84
2022-11-28T18:02:51.886Z,101141.87
2022-11-28T18:05:54.637Z,101136.81
2022-11-28T18:08:58.651Z,101134.91
2022-11-28T18:12:01.287Z,101151.72
2022-11-28T18:15:04.056Z,101149.00
2022-11-28T18:18:06.751Z,101153.22
2022-11-28T18:21:10.389Z,101149.59
2022-11-28T18:24:13.217Z,101153.78
2022-11-28T18:27:16.457Z,101154.50
2022-11-28T18:30:19.178Z,101152.78
2022-11-28T18:33:21.597Z,101162.03
2022-11-28T18:36:25.562Z,101155.22
2022-11-28T18:39:28.109Z,101158.66
2022-11-28T18:42:30.631Z,101164.72
2022-11-28T18:45:33.323Z,101168.16
2022-11-28T18:48:36.795Z,101162.25
2022-11-28T18:51:39.143Z,101164.69
2022-11-28T18:54:41.971Z,101160.28
2022-11-28T18:57:44.317Z,101159.31
2022-11-28T19:00:47.561Z,101162.66
2022-11-28T19:03:50.971Z,101161.69
2022-11-28T19:06:54.044Z,101165.09
2022-11-28T19:09:56.477Z,101160.69
2022-11-28T19:12:59.614Z,101158.84
2022-11-28T19:16:09.623Z,101160.53
2022-11-28T19:19:12.281Z,101163.34
2022-11-28T19:22:14.670Z,101154.00
2022-11-28T19:25:17.233Z,101151.38
2022-11-28T19:28:19.589Z,101152.94
2022-11-28T19:31:22.665Z,101152.94
2022-11-28T19:34:25.907Z,101154.09
2022-11-28T19:37:29.314Z,101151.44
2022-11-28T19:40:31.612Z,101160.78
2022-11-28T19:43:34.970Z,101151.19
2022-11-28T19:46:37.592Z,101155.44
2022-11-28T19:49:40.552Z,101156.13
2022-11-28T19:52:43.404Z,101158.75
2022-11-28T19:55:46.263Z,101157.69
2022-11-28T19:58:49.006Z,101165.22
2022-11-28T20:01:53.884Z,101167.94
2022-11-28T20:04:58.023Z,101169.88
2022-11-28T20:08:00.938Z,101160.62
2022-11-28T20:11:10.549Z,101163.34
2022-11-28T20:14:14.331Z,101155.78
2022-11-28T20:17:16.859Z,101155.09
2022-11-28T20:20:19.593Z,101158.50
2022-11-28T20:23:22.943Z,101155.94
2022-11-28T20:26:26.874Z,101155.22
2022-11-28T20:29:29.645Z,101156.75
2022-11-28T20:32:31.959Z,101153.13
2022-11-28T20:35:34.478Z,101152.53
2022-11-28T20:38:37.392Z,101159.13
2022-11-28T20:41:39.971Z,101160.69
2022-11-28T20:44:42.120Z,101159.22
2022-11-28T20:47:49.663Z,101151.38
2022-11-28T20:50:52.318Z,101163.25
2022-11-28T20:53:56.260Z,101155.50
2022-11-28T20:57:20.350Z,101168.44
2022-11-28T21:00:26.378Z,101161.12
2022-11-28T21:03:29.431Z,101163.19
2022-11-28T21:06:31.979Z,101161.63
2022-11-28T21:09:34.235Z,101161.88
2022-11-28T21:12:36.716Z,101161.97
2022-11-28T21:15:40.431Z,101163.00
2022-11-28T21:18:44.101Z,101169.09
2022-11-28T21:21:46.348Z,101167.75
2022-11-28T21:24:50.551Z,101171.28
2022-11-28T21:27:52.837Z,101166.28
2022-11-28T21:30:55.328Z,101169.75
2022-11-28T21:33:58.371Z,101172.50
2022-11-28T21:37:00.823Z,101170.94
2022-11-28T21:40:03.278Z,101165.06
2022-11-28T21:43:05.841Z,101172.81
2022-11-28T21:46:08.376Z,101167.72
2022-11-28T21:49:11.139Z,101161.00
2022-11-28T21:52:15.979Z,101164.41
2022-11-28T21:55:19.809Z,101175.75
2022-11-28T21:58:26.589Z,101176.63
2022-11-28T22:01:29.996Z,101170.62
2022-11-28T22:04:32.633Z,101171.63
2022-11-28T22:07:35.627Z,101168.94
2022-11-28T22:10:38.375Z,101175.87
2022-11-28T22:13:42.299Z,101171.56
2022-11-28T22:16:44.819Z,101170.00
2022-11-28T22:19:47.390Z,101171.75
2022-11-28T22:22:50.009Z,101176.00
2022-11-28T22:25:52.629Z,101173.47
2022-11-28T22:28:55.570Z,101175.28
2022-11-28T22:31:58.207Z,101174.56
2022-11-28T22:35:02.656Z,101175.34
2022-11-28T22:38:04.885Z,101169.34
2022-11-28T22:41:08.351Z,101178.91
2022-11-28T22:44:11.606Z,101175.28
2022-11-28T22:47:14.201Z,101166.78
2022-11-28T22:50:16.550Z,101163.34
2022-11-28T22:53:19.701Z,101162.50
2022-11-28T22:56:22.369Z,101162.56
2022-11-28T22:59:24.874Z,101168.47
2022-11-28T23:02:30.878Z,101165.13
2022-11-28T23:05:33.721Z,101170.38
2022-11-28T23:08:36.322Z,101160.88
2022-11-28T23:11:39.751Z,101168.56
2022-11-28T23:14:43.011Z,101173.81
2022-11-28T23:17:45.921Z,101172.13
2022-11-28T23:20:48.261Z,101168.69
2022-11-28T23:23:51.144Z,101168.47
2022-11-28T23:26:53.875Z,101178.72
2022-11-28T23:29:56.627Z,101174.47
2022-11-28T23:32:59.061Z,101175.13
2022-11-28T23:36:11.048Z,101173.44
2022-11-28T23:39:14.864Z,101175.19
2022-11-28T23:42:17.396Z,101174.25
2022-11-28T23:45:19.613Z,101171.41
2022-11-28T23:48:22.218Z,101173.13
2022-11-28T23:51:25.925Z,101173.94
2022-11-28T23:54:28.525Z,101166.44
2022-11-28T23:57:30.842Z,101167.31
